Time;durP1;ratioP1;P1;durP2;ratioP2;P2;SDS_P1;SDS_P2;PMS_P1;PMS_P2;Temp;Humidity;BMP_temperature;BMP_pressure;BME280_temperature;BME280_humidity;BME280_pressure;Samples;Min_cycle;Max_cycle;Signal;HPM_P1;HPM_P2
2021/01/29 00:01:55;;;;;;;14.10;2.40;;;6.70;99.90;;;;;;5087381;28;20051;-76
2021/01/29 00:04:22;;;;;;;156.07;6.03;;;6.70;99.90;;;;;;5089633;28;20033;-76
2021/01/29 00:06:50;;;;;;;106.28;4.90;;;6.60;99.90;;;;;;5087749;28;20107;-77
2021/01/29 00:09:19;;;;;;;106.07;5.03;;;6.60;99.90;;;;;;5091415;28;20109;-76
2021/01/29 00:11:48;;;;;;;64.10;3.78;;;6.60;99.90;;;;;;5087266;28;20039;-77
2021/01/29 00:14:13;;;;;;;38.17;2.63;;;6.60;99.90;;;;;;5089815;28;20046;-76
2021/01/29 00:16:39;;;;;;;78.95;4.05;;;6.60;99.90;;;;;;5090926;28;20036;-75
2021/01/29 00:19:05;;;;;;;6.35;2.30;;;6.50;99.90;;;;;;5093170;28;20035;-76
2021/01/29 00:21:33;;;;;;;6.45;1.90;;;6.50;99.90;;;;;;5089068;28;20621;-76
2021/01/29 00:24:01;;;;;;;65.72;3.10;;;6.40;99.90;;;;;;5093623;28;20017;-76
2021/01/29 00:26:29;;;;;;;7.80;1.50;;;6.40;99.90;;;;;;5093572;28;20042;-75
2021/01/29 00:28:57;;;;;;;23.15;2.00;;;6.40;99.90;;;;;;5092397;28;20032;-75
2021/01/29 00:31:23;;;;;;;22.88;2.30;;;6.40;99.90;;;;;;5089353;28;20101;-75
2021/01/29 00:33:48;;;;;;;53.15;3.05;;;6.30;99.90;;;;;;5087772;28;20028;-75
2021/01/29 00:36:14;;;;;;;25.23;1.85;;;6.30;99.90;;;;;;5076570;28;20035;-76
2021/01/29 00:38:40;;;;;;;4.40;1.30;;;6.30;99.90;;;;;;5089577;28;20745;-75
2021/01/29 00:41:05;;;;;;;9.75;1.85;;;6.30;99.90;;;;;;5093346;28;20479;-76
2021/01/29 00:43:31;;;;;;;3.45;1.40;;;6.30;99.90;;;;;;5073344;28;20032;-76
2021/01/29 00:45:57;;;;;;;33.92;2.55;;;6.30;99.90;;;;;;5074136;28;20373;-76
2021/01/29 00:48:23;;;;;;;4.85;1.60;;;6.20;99.90;;;;;;5072996;28;20067;-76
2021/01/29 00:50:49;;;;;;;9.07;1.55;;;6.30;99.90;;;;;;5073148;28;20028;-76
2021/01/29 00:53:17;;;;;;;17.25;1.70;;;6.20;99.90;;;;;;5074542;28;20042;-76
2021/01/29 00:55:42;;;;;;;9.55;1.50;;;6.20;99.90;;;;;;5073817;28;20472;-76
2021/01/29 00:58:10;;;;;;;8.48;1.60;;;6.20;99.90;;;;;;5056820;28;20024;-76
2021/01/29 01:00:38;;;;;;;2.38;1.30;;;6.10;99.90;;;;;;5076658;28;20025;-76
2021/01/29 01:03:07;;;;;;;15.18;1.88;;;6.10;99.90;;;;;;5073366;28;20036;-76
2021/01/29 01:05:33;;;;;;;96.38;3.90;;;6.10;99.90;;;;;;5073840;28;20471;-75
2021/01/29 01:08:01;;;;;;;87.55;3.63;;;6.10;99.90;;;;;;5077180;28;20183;-76
2021/01/29 01:10:29;;;;;;;57.15;2.75;;;6.00;99.90;;;;;;5078030;28;20037;-76
2021/01/29 01:12:57;;;;;;;7.00;1.83;;;6.00;99.90;;;;;;5079062;28;20032;-75
2021/01/29 01:15:24;;;;;;;13.38;2.40;;;5.90;99.90;;;;;;5078139;28;20567;-75
2021/01/29 01:17:50;;;;;;;31.17;4.05;;;5.90;99.90;;;;;;5076576;28;20065;-75
2021/01/29 01:20:17;;;;;;;11.10;3.72;;;5.90;99.90;;;;;;5073300;28;20052;-75
2021/01/29 01:22:42;;;;;;;36.78;4.90;;;5.90;99.90;;;;;;5084024;28;20027;-75
2021/01/29 01:25:09;;;;;;;5.47;2.03;;;5.90;99.90;;;;;;5062278;28;20032;-75
2021/01/29 01:27:36;;;;;;;16.15;5.07;;;5.90;99.90;;;;;;5079977;28;20024;-75
2021/01/29 01:30:09;;;;;;;9.18;4.57;;;5.90;99.90;;;;;;5077959;28;20162;-75
2021/01/29 01:32:35;;;;;;;6.70;3.05;;;5.90;99.90;;;;;;5077338;28;20683;-75
2021/01/29 01:35:06;;;;;;;7.60;3.20;;;5.90;99.90;;;;;;5078259;28;20035;-75
2021/01/29 01:37:36;;;;;;;6.43;3.10;;;5.90;99.90;;;;;;5076235;28;20032;-76
2021/01/29 01:40:02;;;;;;;14.13;2.22;;;5.90;99.90;;;;;;5076063;28;20045;-76
2021/01/29 01:42:28;;;;;;;5.45;2.03;;;5.90;99.90;;;;;;5079223;28;20107;-76
2021/01/29 01:44:54;;;;;;;32.70;3.03;;;5.90;99.90;;;;;;5077775;28;20128;-76
2021/01/29 01:47:32;;;;;;;7.40;1.77;;;5.80;99.90;;;;;;5075781;28;20125;-76
2021/01/29 01:50:12;;;;;;;22.63;2.70;;;5.80;99.90;;;;;;5079162;28;20221;-76
2021/01/29 01:52:40;;;;;;;20.00;2.75;;;5.80;99.90;;;;;;5072631;28;20137;-76
2021/01/29 01:55:19;;;;;;;4.93;1.90;;;5.80;99.90;;;;;;5090217;28;20990;-76
2021/01/29 01:57:47;;;;;;;37.60;2.63;;;5.80;99.90;;;;;;5083706;28;20038;-76
2021/01/29 02:00:36;;;;;;;51.35;3.17;;;5.80;99.90;;;;;;5064799;28;20820;-76
2021/01/29 02:03:09;;;;;;;14.20;2.00;;;5.70;99.90;;;;;;5071896;28;20031;-76
2021/01/29 02:05:39;;;;;;;4.95;1.88;;;5.70;99.90;;;;;;5058985;28;20124;-76
2021/01/29 02:08:06;;;;;;;5.88;1.55;;;5.60;99.90;;;;;;5060747;28;20036;-76
2021/01/29 02:10:31;;;;;;;6.32;1.40;;;5.70;99.90;;;;;;5075553;28;20026;-76
2021/01/29 02:13:00;;;;;;;6.22;1.85;;;5.70;99.90;;;;;;5061889;28;20031;-76
2021/01/29 02:15:31;;;;;;;3.30;1.67;;;5.70;99.90;;;;;;5082711;28;20028;-76
2021/01/29 02:18:24;;;;;;;3.67;1.50;;;5.70;99.90;;;;;;5059804;28;20020;-76
2021/01/29 02:21:22;;;;;;;2.25;1.30;;;5.70;99.90;;;;;;5075348;28;20120;-76
2021/01/29 02:24:18;;;;;;;3.03;1.30;;;5.70;99.90;;;;;;5062010;28;20069;-76
2021/01/29 02:27:01;;;;;;;9.02;1.48;;;5.70;99.90;;;;;;5083138;28;20037;-76
2021/01/29 02:29:37;;;;;;;20.52;1.70;;;5.70;99.90;;;;;;5076330;28;20121;-75
2021/01/29 02:32:42;;;;;;;8.13;1.27;;;5.60;99.90;;;;;;5078411;28;20033;-75
2021/01/29 02:35:32;;;;;;;7.53;1.55;;;5.70;99.90;;;;;;5091881;28;20043;-76
2021/01/29 02:38:38;;;;;;;3.40;1.30;;;5.70;99.90;;;;;;5084453;28;20587;-76
2021/01/29 02:41:24;;;;;;;30.00;1.92;;;5.70;99.90;;;;;;5076688;28;20028;-76
2021/01/29 02:43:58;;;;;;;59.65;3.25;;;5.70;99.90;;;;;;5076289;28;20128;-76
2021/01/29 02:46:35;;;;;;;67.22;3.10;;;5.70;99.90;;;;;;5076074;28;20024;-77
2021/01/29 02:49:06;;;;;;;9.95;1.63;;;5.70;99.90;;;;;;5077338;28;20047;-76
2021/01/29 02:51:39;;;;;;;1.38;0.88;;;5.70;99.90;;;;;;5089750;28;20073;-76
2021/01/29 02:54:11;;;;;;;8.25;1.30;;;5.70;99.90;;;;;;5069395;28;20040;-76
2021/01/29 02:56:55;;;;;;;13.90;1.40;;;5.70;99.90;;;;;;5074983;28;20028;-76
2021/01/29 02:59:38;;;;;;;34.55;2.03;;;5.70;99.90;;;;;;5074486;28;20055;-77
2021/01/29 03:02:10;;;;;;;12.05;1.23;;;5.70;99.90;;;;;;5076273;28;20103;-76
2021/01/29 03:04:54;;;;;;;62.55;2.65;;;5.70;99.90;;;;;;5085638;28;20044;-76
2021/01/29 03:07:25;;;;;;;46.22;2.28;;;5.70;99.90;;;;;;5093387;28;20093;-76
2021/01/29 03:10:00;;;;;;;40.85;2.10;;;5.70;99.90;;;;;;5064869;28;20608;-76
2021/01/29 03:12:40;;;;;;;22.48;1.75;;;5.80;99.90;;;;;;5086412;28;20385;-77
2021/01/29 03:15:33;;;;;;;58.42;2.60;;;5.70;99.90;;;;;;5056878;28;20036;-77
2021/01/29 03:18:08;;;;;;;7.13;1.00;;;5.80;99.90;;;;;;5078381;28;20042;-76
2021/01/29 03:20:39;;;;;;;11.73;1.10;;;5.80;99.90;;;;;;5060136;28;20035;-76
2021/01/29 03:23:17;;;;;;;5.55;1.02;;;5.80;99.90;;;;;;5076088;28;20027;-76
2021/01/29 03:25:47;;;;;;;3.53;0.90;;;5.80;99.90;;;;;;5060315;28;20638;-74
2021/01/29 03:28:19;;;;;;;7.47;0.82;;;5.80;99.90;;;;;;5057194;28;20464;-74
2021/01/29 03:30:52;;;;;;;3.55;0.90;;;5.90;99.90;;;;;;5059196;28;20020;-74
2021/01/29 03:33:18;;;;;;;29.48;1.75;;;5.90;99.90;;;;;;5068562;28;20477;-74
2021/01/29 03:36:04;;;;;;;40.22;2.20;;;5.90;99.90;;;;;;5068399;28;20652;-73
2021/01/29 03:38:43;;;;;;;3.20;1.17;;;5.90;99.90;;;;;;5081632;28;20048;-74
2021/01/29 03:41:24;;;;;;;5.22;1.20;;;5.90;99.90;;;;;;5077653;28;20514;-74
2021/01/29 03:44:08;;;;;;;3.65;0.73;;;5.80;99.90;;;;;;5076734;28;20055;-74
2021/01/29 03:46:57;;;;;;;22.40;1.30;;;5.80;99.90;;;;;;5075144;28;20070;-76
2021/01/29 03:49:43;;;;;;;8.23;1.13;;;5.90;99.90;;;;;;5044144;28;20040;-76
2021/01/29 03:52:29;;;;;;;9.85;1.10;;;5.90;99.90;;;;;;5073239;28;20032;-76
2021/01/29 03:55:12;;;;;;;2.92;1.00;;;5.90;99.90;;;;;;5072798;28;20024;-76
2021/01/29 03:57:52;;;;;;;18.00;1.38;;;5.90;99.90;;;;;;5075651;28;20041;-76
2021/01/29 04:00:41;;;;;;;38.97;2.08;;;5.90;99.90;;;;;;5074374;28;20028;-76
2021/01/29 04:03:27;;;;;;;19.67;1.40;;;5.90;99.90;;;;;;5072188;28;20043;-76
2021/01/29 04:06:13;;;;;;;8.18;1.10;;;5.90;99.90;;;;;;5075631;28;20554;-76
2021/01/29 04:08:42;;;;;;;3.38;1.08;;;5.90;99.90;;;;;;5073531;28;20042;-76
2021/01/29 04:11:11;;;;;;;71.60;3.05;;;5.90;99.90;;;;;;5072757;28;20024;-76
2021/01/29 04:13:41;;;;;;;74.82;3.50;;;5.90;99.90;;;;;;5058797;28;20044;-76
2021/01/29 04:16:09;;;;;;;46.78;3.05;;;5.90;99.90;;;;;;5068734;28;20159;-77
2021/01/29 04:18:48;;;;;;;94.05;4.00;;;6.00;99.90;;;;;;5075498;28;20027;-74
2021/01/29 04:21:17;;;;;;;12.90;1.40;;;6.00;99.90;;;;;;5052659;28;20473;-74
2021/01/29 04:23:46;;;;;;;22.77;1.75;;;6.00;99.90;;;;;;5073738;28;20097;-75
2021/01/29 04:26:24;;;;;;;23.27;2.13;;;6.00;99.90;;;;;;5069149;28;20167;-75
2021/01/29 04:28:55;;;;;;;125.40;4.90;;;6.10;99.90;;;;;;5075412;28;20061;-74
2021/01/29 04:31:24;;;;;;;27.10;1.95;;;6.10;99.90;;;;;;5051169;28;20042;-75
2021/01/29 04:33:56;;;;;;;21.88;1.75;;;6.10;99.90;;;;;;5071735;28;20940;-76
2021/01/29 04:36:28;;;;;;;;;;;6.10;99.90;;;;;;5073088;28;20047;-74
2021/01/29 04:38:57;;;;;;;18.73;1.80;;;6.10;99.90;;;;;;5085720;28;20371;-75
2021/01/29 04:41:32;;;;;;;14.52;1.48;;;6.10;99.90;;;;;;5077579;28;20468;-75
2021/01/29 04:44:30;;;;;;;68.88;2.83;;;6.10;99.90;;;;;;5082261;28;20032;-75
2021/01/29 04:47:03;;;;;;;16.33;1.30;;;6.20;99.90;;;;;;5047740;28;20090;-75
2021/01/29 04:50:07;;;;;;;40.35;2.20;;;6.20;99.90;;;;;;5080784;28;20032;-76
2021/01/29 04:53:10;;;;;;;27.88;1.65;;;6.20;99.90;;;;;;5096184;28;20030;-75
2021/01/29 04:55:38;;;;;;;;;;;6.20;99.90;;;;;;5092795;28;20028;-75
2021/01/29 04:58:23;;;;;;;41.25;2.15;;;6.20;99.90;;;;;;5081656;28;20002;-75
2021/01/29 05:01:22;;;;;;;25.40;1.85;;;6.20;99.90;;;;;;5081181;28;20028;-75
2021/01/29 05:04:07;;;;;;;23.25;1.60;;;6.20;99.90;;;;;;5080320;28;20077;-75
2021/01/29 05:06:45;;;;;;;32.10;1.80;;;6.30;99.90;;;;;;5079356;28;20119;-75
2021/01/29 05:09:24;;;;;;;72.15;3.20;;;6.20;99.90;;;;;;5078822;28;20032;-75
2021/01/29 05:12:11;;;;;;;26.83;1.40;;;6.30;99.90;;;;;;5074119;28;20173;-75
2021/01/29 05:15:08;;;;;;;32.65;1.75;;;6.30;99.90;;;;;;5080065;28;20025;-75
2021/01/29 05:17:57;;;;;;;22.40;1.50;;;6.20;99.90;;;;;;5081934;28;20038;-75
2021/01/29 05:20:56;;;;;;;39.28;2.00;;;6.20;99.90;;;;;;5081038;28;20063;-75
2021/01/29 05:23:36;;;;;;;24.13;1.55;;;6.30;99.90;;;;;;5081355;28;20032;-75
2021/01/29 05:26:32;;;;;;;30.30;1.60;;;6.30;99.90;;;;;;5079812;28;20368;-75
2021/01/29 05:29:08;;;;;;;24.67;1.52;;;6.30;99.90;;;;;;5086134;28;20167;-75
2021/01/29 05:31:58;;;;;;;13.45;0.95;;;6.30;99.90;;;;;;5069323;28;20032;-75
2021/01/29 05:34:40;;;;;;;10.73;1.02;;;6.30;99.90;;;;;;5085656;28;20028;-75
2021/01/29 05:37:47;;;;;;;16.70;0.90;;;6.30;99.90;;;;;;5079216;27;20511;-75
2021/01/29 05:40:45;;;;;;;3.22;0.70;;;6.40;99.90;;;;;;5058411;28;20052;-75
2021/01/29 05:43:32;;;;;;;6.32;0.70;;;6.40;99.90;;;;;;5080404;28;20036;-75
2021/01/29 05:46:07;;;;;;;6.22;0.80;;;6.40;99.90;;;;;;5079263;28;20051;-75
2021/01/29 05:49:01;;;;;;;8.43;0.90;;;6.40;99.90;;;;;;5081493;27;20102;-75
2021/01/29 05:51:27;;;;;;;7.35;1.08;;;6.40;99.90;;;;;;5078430;28;20844;-75
2021/01/29 05:54:11;;;;;;;5.78;0.80;;;6.40;99.90;;;;;;5077150;28;20031;-76
2021/01/29 05:57:11;;;;;;;11.23;0.85;;;6.50;99.90;;;;;;5076974;28;20032;-75
2021/01/29 05:59:52;;;;;;;5.43;0.70;;;6.50;99.90;;;;;;5058294;28;20131;-75
2021/01/29 06:02:26;;;;;;;12.30;1.02;;;6.50;99.90;;;;;;5076367;28;20071;-76
2021/01/29 06:05:15;;;;;;;9.48;1.10;;;6.50;99.90;;;;;;5076353;28;20401;-75
2021/01/29 06:08:09;;;;;;;6.78;1.60;;;6.50;99.90;;;;;;5079661;28;20057;-75
2021/01/29 06:11:09;;;;;;;16.17;1.02;;;6.50;99.90;;;;;;5082984;28;20074;-76
2021/01/29 06:13:57;;;;;;;10.40;1.10;;;6.50;99.90;;;;;;5061762;28;20168;-76
2021/01/29 06:16:31;;;;;;;18.95;1.30;;;6.50;99.90;;;;;;5074901;28;20032;-76
2021/01/29 06:19:03;;;;;;;16.77;1.38;;;6.50;99.90;;;;;;5075502;28;20035;-75
2021/01/29 06:21:40;;;;;;;17.97;1.27;;;6.50;99.90;;;;;;5077139;28;20035;-75
2021/01/29 06:24:12;;;;;;;44.42;2.33;;;6.50;99.90;;;;;;5076532;28;20060;-76
2021/01/29 06:26:47;;;;;;;52.20;2.60;;;6.50;99.90;;;;;;5083166;28;20028;-75
2021/01/29 06:29:31;;;;;;;32.15;2.30;;;6.50;99.90;;;;;;5075585;28;20035;-76
2021/01/29 06:32:21;;;;;;;17.30;1.88;;;6.50;99.90;;;;;;5071625;28;20047;-76
2021/01/29 06:35:20;;;;;;;10.13;1.98;;;6.60;99.90;;;;;;5079761;28;20029;-76
2021/01/29 06:37:59;;;;;;;13.05;1.50;;;6.70;99.90;;;;;;5075425;28;20029;-76
2021/01/29 06:40:44;;;;;;;16.13;1.90;;;6.70;99.90;;;;;;5069645;28;20033;-75
2021/01/29 06:43:35;;;;;;;38.83;2.50;;;6.80;99.90;;;;;;5074676;28;20025;-75
2021/01/29 06:46:20;;;;;;;3.38;1.23;;;6.80;99.90;;;;;;5085571;28;20023;-76
2021/01/29 06:48:53;;;;;;;2.05;1.20;;;7.00;99.90;;;;;;5088526;28;20027;-76
2021/01/29 06:51:41;;;;;;;0.90;0.80;;;7.20;99.90;;;;;;5092239;28;20101;-76
2021/01/29 06:54:11;;;;;;;1.20;0.60;;;7.40;99.90;;;;;;5077608;28;20040;-76
2021/01/29 06:56:46;;;;;;;0.68;0.60;;;7.60;99.90;;;;;;5046290;28;20044;-75
2021/01/29 06:59:30;;;;;;;1.30;0.60;;;7.80;99.90;;;;;;5074629;28;20154;-75
2021/01/29 07:02:18;;;;;;;0.40;0.40;;;7.80;99.90;;;;;;5080302;28;20503;-75
2021/01/29 07:05:21;;;;;;;0.52;0.50;;;8.00;99.90;;;;;;5078089;28;20028;-76
2021/01/29 07:08:05;;;;;;;0.70;0.40;;;8.10;99.90;;;;;;5076412;28;20052;-76
2021/01/29 07:10:36;;;;;;;2.10;0.40;;;8.10;99.90;;;;;;5074806;28;20029;-77
2021/01/29 07:13:29;;;;;;;0.80;0.30;;;8.20;99.90;;;;;;5077172;28;20138;-76
2021/01/29 07:16:12;;;;;;;0.43;0.30;;;8.20;99.90;;;;;;5074823;28;20033;-77
2021/01/29 07:18:53;;;;;;;0.65;0.43;;;8.30;99.90;;;;;;5075399;28;20470;-76
2021/01/29 07:21:33;;;;;;;0.38;0.38;;;8.30;99.90;;;;;;5074354;28;20040;-77
2021/01/29 07:24:14;;;;;;;1.05;0.32;;;8.30;99.90;;;;;;5073964;28;20085;-75
2021/01/29 07:26:42;;;;;;;0.77;0.43;;;8.30;99.90;;;;;;5060759;28;20032;-75
2021/01/29 07:29:45;;;;;;;0.63;0.40;;;8.30;99.90;;;;;;5075470;28;20034;-76
2021/01/29 07:32:34;;;;;;;0.68;0.38;;;8.30;99.90;;;;;;5073741;28;20024;-76
2021/01/29 07:35:25;;;;;;;0.52;0.35;;;8.30;99.90;;;;;;5073325;28;20036;-76
2021/01/29 07:38:28;;;;;;;0.63;0.47;;;8.20;99.90;;;;;;5072862;28;20043;-76
2021/01/29 07:40:57;;;;;;;0.75;0.60;;;8.20;99.90;;;;;;5075034;28;20111;-76
2021/01/29 07:43:29;;;;;;;0.65;0.40;;;8.20;99.90;;;;;;5073385;28;20120;-77
2021/01/29 07:46:19;;;;;;;1.00;0.50;;;8.20;99.90;;;;;;5074443;28;20149;-76
2021/01/29 07:49:11;;;;;;;0.47;0.40;;;8.30;99.90;;;;;;5082291;28;20053;-76
2021/01/29 07:51:47;;;;;;;1.52;0.60;;;8.30;99.90;;;;;;5088944;28;20043;-76
2021/01/29 07:54:37;;;;;;;0.88;0.43;;;8.30;99.90;;;;;;5058263;28;20447;-75
2021/01/29 07:57:24;;;;;;;0.98;0.40;;;8.30;99.90;;;;;;5073451;28;20028;-76
2021/01/29 08:00:20;;;;;;;0.63;0.40;;;8.30;99.90;;;;;;5076834;28;20068;-77
2021/01/29 08:03:24;;;;;;;2.58;0.60;;;8.30;99.90;;;;;;5073725;28;20017;-76
2021/01/29 08:06:00;;;;;;;0.40;0.40;;;8.20;99.90;;;;;;5074493;28;20425;-77
2021/01/29 08:08:29;;;;;;;1.75;0.57;;;8.30;99.90;;;;;;5089897;28;20032;-77
2021/01/29 08:10:55;;;;;;;1.63;0.60;;;8.30;99.90;;;;;;5085499;28;20024;-76
2021/01/29 08:13:33;;;;;;;0.80;0.50;;;8.30;99.90;;;;;;5072692;28;20560;-76
2021/01/29 08:16:02;;;;;;;2.00;0.65;;;8.30;99.90;;;;;;5071456;28;20104;-76
2021/01/29 08:18:32;;;;;;;1.27;0.40;;;8.30;99.90;;;;;;5074401;28;21777;-77
2021/01/29 08:21:04;;;;;;;1.13;0.60;;;8.30;99.90;;;;;;5073196;28;20020;-76
2021/01/29 08:23:33;;;;;;;1.58;0.70;;;8.30;99.90;;;;;;5068662;28;20508;-76
2021/01/29 08:26:20;;;;;;;1.80;0.60;;;8.30;99.90;;;;;;5074955;28;20035;-76
2021/01/29 08:29:16;;;;;;;1.77;0.57;;;8.40;99.90;;;;;;5075634;28;20039;-78
2021/01/29 08:32:02;;;;;;;0.85;0.43;;;8.40;99.90;;;;;;5075035;28;20032;-77
2021/01/29 08:34:54;;;;;;;0.55;0.50;;;8.40;99.90;;;;;;5073006;28;20068;-77
2021/01/29 08:37:47;;;;;;;1.23;0.60;;;8.40;99.90;;;;;;5043063;28;20040;-78
2021/01/29 08:40:35;;;;;;;0.90;0.50;;;8.30;99.90;;;;;;5062515;28;20047;-79
2021/01/29 08:43:48;;;;;;;4.80;2.42;;;8.30;99.90;;;;;;5073739;28;20059;-78
2021/01/29 08:46:37;;;;;;;2.38;0.98;;;8.40;99.90;;;;;;5026766;28;20061;-79
2021/01/29 08:49:09;;;;;;;3.78;0.90;;;8.40;99.90;;;;;;5092245;28;20039;-76
2021/01/29 08:51:44;;;;;;;3.00;0.88;;;8.40;99.90;;;;;;5089072;28;20028;-76
2021/01/29 08:54:40;;;;;;;2.25;1.13;;;8.40;99.90;;;;;;5085297;28;20173;-77
2021/01/29 08:57:29;;;;;;;1.88;0.90;;;8.50;99.90;;;;;;5073947;28;20067;-78
2021/01/29 09:00:01;;;;;;;5.97;1.20;;;8.40;99.90;;;;;;5075178;28;20017;-77
2021/01/29 09:02:37;;;;;;;4.07;1.10;;;8.40;99.90;;;;;;5084427;28;20020;-78
2021/01/29 09:05:17;;;;;;;3.05;1.00;;;8.40;99.90;;;;;;5081746;28;20024;-78
2021/01/29 09:07:43;;;;;;;5.78;1.42;;;8.50;99.90;;;;;;5088926;28;20031;-77
2021/01/29 09:10:23;;;;;;;5.28;1.70;;;8.50;99.90;;;;;;5076564;28;20042;-78
2021/01/29 09:13:00;;;;;;;5.93;1.50;;;8.60;99.90;;;;;;5068784;28;21542;-78
2021/01/29 09:15:40;;;;;;;8.50;1.90;;;8.60;99.90;;;;;;5064692;28;20039;-78
2021/01/29 09:18:13;;;;;;;7.30;1.75;;;8.60;99.90;;;;;;5073091;28;20037;-77
2021/01/29 09:20:44;;;;;;;8.50;1.88;;;8.60;99.90;;;;;;5071052;28;20027;-78
2021/01/29 09:23:27;;;;;;;8.85;2.00;;;8.60;99.90;;;;;;5068903;28;20106;-76
2021/01/29 09:26:19;;;;;;;8.05;2.50;;;8.60;99.90;;;;;;5071119;28;20040;-77
2021/01/29 09:28:45;;;;;;;9.05;1.58;;;8.70;99.90;;;;;;5083906;28;20057;-78
2021/01/29 09:31:25;;;;;;;8.63;1.88;;;8.70;99.90;;;;;;5075968;28;20048;-78
2021/01/29 09:34:01;;;;;;;11.93;2.15;;;8.70;99.90;;;;;;5073504;28;20032;-79
2021/01/29 09:36:35;;;;;;;9.10;1.80;;;8.60;99.90;;;;;;5066885;28;20115;-79
2021/01/29 09:39:33;;;;;;;10.65;2.13;;;8.60;99.90;;;;;;5068645;28;20097;-78
2021/01/29 09:42:26;;;;;;;10.35;2.42;;;8.70;99.90;;;;;;5049736;28;20116;-78
2021/01/29 09:45:02;;;;;;;8.13;2.10;;;8.80;99.90;;;;;;5071900;28;20107;-78
2021/01/29 09:47:28;;;;;;;12.30;2.13;;;8.80;99.90;;;;;;5068322;28;20048;-77
2021/01/29 09:50:00;;;;;;;9.95;2.22;;;8.80;99.90;;;;;;5076562;28;20047;-78
2021/01/29 09:52:34;;;;;;;12.77;2.40;;;8.80;99.90;;;;;;5059977;28;20039;-77
2021/01/29 09:55:02;;;;;;;7.50;2.10;;;8.80;99.90;;;;;;5074365;28;20031;-77
2021/01/29 09:57:39;;;;;;;8.77;2.00;;;8.90;99.90;;;;;;5087739;28;20035;-77
2021/01/29 10:00:14;;;;;;;8.82;1.90;;;8.90;99.90;;;;;;5071920;28;20366;-78
2021/01/29 10:03:04;;;;;;;12.15;2.20;;;8.90;99.90;;;;;;5074676;28;20261;-77
2021/01/29 10:05:45;;;;;;;10.50;2.00;;;8.90;99.90;;;;;;5074184;28;20089;-80
2021/01/29 10:08:15;;;;;;;9.68;2.28;;;8.90;99.90;;;;;;5077285;28;20033;-79
2021/01/29 10:10:53;;;;;;;7.78;2.10;;;8.90;99.90;;;;;;5082201;28;20043;-79
2021/01/29 10:13:36;;;;;;;8.57;2.00;;;8.90;99.90;;;;;;5075051;28;20111;-78
2021/01/29 10:16:18;;;;;;;10.68;2.08;;;9.00;99.90;;;;;;5075901;28;20032;-79
2021/01/29 10:18:58;;;;;;;11.82;2.60;;;8.90;99.90;;;;;;5050447;28;20454;-79
2021/01/29 10:21:34;;;;;;;11.80;2.65;;;8.90;99.90;;;;;;5074581;28;20046;-78
2021/01/29 10:24:08;;;;;;;11.85;2.38;;;8.90;99.90;;;;;;5075500;28;20551;-79
2021/01/29 10:26:43;;;;;;;10.98;2.47;;;8.90;99.90;;;;;;5070885;28;20028;-80
2021/01/29 10:29:22;;;;;;;10.20;2.58;;;8.90;99.90;;;;;;5066249;28;20093;-80
2021/01/29 10:32:22;;;;;;;17.08;3.08;;;8.90;99.90;;;;;;5074804;28;20473;-78
2021/01/29 10:35:00;;;;;;;15.05;2.50;;;8.80;99.90;;;;;;5086209;28;20040;-78
2021/01/29 10:37:31;;;;;;;13.23;2.88;;;8.80;99.90;;;;;;5079517;28;20530;-78
2021/01/29 10:40:17;;;;;;;12.93;2.55;;;8.80;99.90;;;;;;5081004;28;20059;-78
2021/01/29 10:42:52;;;;;;;15.18;3.25;;;8.80;99.90;;;;;;4720499;28;10000585;-74
2021/01/29 10:45:24;;;;;;;12.77;3.28;;;8.80;99.90;;;;;;5087382;28;20024;-80
2021/01/29 10:48:19;;;;;;;14.90;2.60;;;8.80;99.90;;;;;;5086566;28;20503;-78
2021/01/29 10:50:57;;;;;;;11.65;2.72;;;8.90;99.90;;;;;;5088803;28;20139;-78
2021/01/29 10:53:26;;;;;;;12.40;2.72;;;8.90;99.90;;;;;;5080796;28;20027;-79
2021/01/29 10:56:11;;;;;;;14.45;2.75;;;8.90;99.90;;;;;;5076578;28;20094;-81
2021/01/29 10:58:45;;;;;;;11.60;2.67;;;8.90;99.90;;;;;;5083094;28;20032;-78
2021/01/29 11:01:31;;;;;;;11.23;2.58;;;8.90;99.90;;;;;;5085895;28;20027;-77
2021/01/29 11:04:04;;;;;;;14.57;2.67;;;8.90;99.90;;;;;;5059627;28;20029;-80
2021/01/29 11:06:58;;;;;;;13.35;2.60;;;8.90;99.90;;;;;;5069182;28;20054;-79
2021/01/29 11:09:35;;;;;;;12.93;2.83;;;8.90;99.90;;;;;;5090834;28;20460;-81
2021/01/29 11:12:13;;;;;;;11.60;3.25;;;9.00;99.90;;;;;;5078361;28;20043;-80
2021/01/29 11:14:43;;;;;;;11.38;2.67;;;9.10;99.90;;;;;;5061216;28;20098;-80
2021/01/29 11:17:22;;;;;;;10.98;2.92;;;9.10;99.90;;;;;;5067104;28;20015;-72
2021/01/29 11:19:48;;;;;;;12.93;2.85;;;9.20;99.90;;;;;;5086459;28;20034;-74
2021/01/29 11:22:33;;;;;;;11.77;2.70;;;9.30;99.90;;;;;;5090608;28;20039;-80
2021/01/29 11:25:24;;;;;;;10.48;2.28;;;9.40;99.90;;;;;;5089402;28;20020;-81
2021/01/29 11:28:03;;;;;;;15.23;3.00;;;9.40;99.90;;;;;;5086718;28;20027;-71
2021/01/29 11:30:35;;;;;;;9.90;3.22;;;9.40;99.90;;;;;;5088353;28;20042;-80
2021/01/29 11:33:05;;;;;;;10.30;2.65;;;9.40;99.90;;;;;;5065703;28;20039;-81
2021/01/29 11:36:11;;;;;;;13.20;3.80;;;9.40;99.90;;;;;;5048756;28;20120;-79
2021/01/29 11:38:39;;;;;;;11.30;2.28;;;9.50;99.90;;;;;;5088973;28;20044;-79
2021/01/29 11:41:32;;;;;;;10.88;2.55;;;9.50;99.90;;;;;;5077591;28;20031;-80
2021/01/29 11:44:01;;;;;;;;;;;9.50;99.90;;;;;;5092903;28;20091;-80
2021/01/29 11:46:32;;;;;;;11.63;2.28;;;9.50;99.90;;;;;;5089083;28;19916;-81
2021/01/29 11:48:58;;;;;;;8.32;2.10;;;9.60;99.90;;;;;;5071034;28;20032;-81
2021/01/29 11:51:47;;;;;;;9.70;2.05;;;9.70;99.90;;;;;;5086881;28;20024;-81
2021/01/29 11:54:19;;;;;;;8.05;2.28;;;9.70;99.90;;;;;;5090302;27;20050;-80
2021/01/29 11:56:56;;;;;;;9.27;2.40;;;9.70;99.90;;;;;;5091126;28;20102;-78
2021/01/29 11:59:52;;;;;;;10.65;1.90;;;9.70;99.90;;;;;;5094541;28;20445;-79
2021/01/29 12:02:33;;;;;;;12.43;2.63;;;9.70;99.90;;;;;;5078471;28;20023;-78
2021/01/29 12:05:18;;;;;;;7.97;1.73;;;9.60;99.90;;;;;;5085824;28;20025;-79
2021/01/29 12:07:54;;;;;;;8.00;2.05;;;9.70;99.90;;;;;;5086874;28;20685;-79
2021/01/29 12:10:43;;;;;;;7.15;1.73;;;9.60;99.90;;;;;;5078885;28;20019;-81
2021/01/29 12:13:43;;;;;;;12.35;2.05;;;9.50;99.90;;;;;;5079959;28;20043;-79
2021/01/29 12:16:20;;;;;;;10.48;2.30;;;9.60;99.90;;;;;;5088696;28;20580;-80
2021/01/29 12:18:54;;;;;;;10.88;2.20;;;9.50;99.90;;;;;;5083876;28;20029;-80
2021/01/29 12:21:34;;;;;;;4.95;1.63;;;9.50;99.90;;;;;;5067606;28;20020;-80
2021/01/29 12:24:21;;;;;;;8.20;1.85;;;9.40;99.90;;;;;;5074941;28;20028;-80
2021/01/29 12:27:07;;;;;;;7.03;1.70;;;9.40;99.90;;;;;;5073195;28;20039;-80
2021/01/29 12:29:52;;;;;;;9.45;1.80;;;9.40;99.90;;;;;;5060136;28;20482;-81
2021/01/29 12:32:21;;;;;;;9.05;1.63;;;9.30;99.90;;;;;;5081511;28;20039;-80
2021/01/29 12:34:52;;;;;;;7.55;1.75;;;9.30;99.90;;;;;;5090029;28;20035;-78
2021/01/29 12:37:26;;;;;;;7.13;1.88;;;9.30;99.90;;;;;;5077162;28;20025;-77
2021/01/29 12:39:58;;;;;;;8.65;2.08;;;9.30;99.90;;;;;;5073443;28;20040;-78
2021/01/29 12:42:27;;;;;;;8.37;1.90;;;9.30;99.90;;;;;;5089826;28;20032;-79
2021/01/29 12:44:58;;;;;;;7.45;1.90;;;9.30;99.90;;;;;;5073084;28;20358;-80
2021/01/29 12:47:38;;;;;;;9.32;1.60;;;9.40;99.90;;;;;;5056804;28;20099;-78
2021/01/29 12:50:32;;;;;;;5.43;1.38;;;9.40;99.90;;;;;;5076436;28;20038;-78
2021/01/29 12:53:02;;;;;;;8.02;1.60;;;9.40;99.90;;;;;;5074649;28;20036;-75
2021/01/29 12:55:37;;;;;;;7.82;1.75;;;9.40;99.90;;;;;;5058617;28;21852;-74
2021/01/29 12:58:09;;;;;;;8.30;1.70;;;9.40;99.90;;;;;;5044345;28;20212;-78
2021/01/29 13:00:39;;;;;;;4.95;1.45;;;9.40;99.90;;;;;;5059533;28;20051;-79
2021/01/29 13:03:33;;;;;;;6.72;1.70;;;9.30;99.90;;;;;;5076329;28;20093;-79
2021/01/29 13:06:05;;;;;;;8.88;1.90;;;9.30;99.90;;;;;;5069562;28;20040;-80
2021/01/29 13:08:43;;;;;;;7.53;2.05;;;9.30;99.90;;;;;;5083590;28;20043;-79
2021/01/29 13:11:17;;;;;;;5.43;1.55;;;9.40;99.90;;;;;;5078336;28;20028;-79
2021/01/29 13:14:04;;;;;;;5.35;1.50;;;9.40;99.90;;;;;;5077674;28;20399;-78
2021/01/29 13:17:07;;;;;;;5.10;1.30;;;9.40;99.90;;;;;;5083519;28;20039;-81
2021/01/29 13:19:36;;;;;;;5.10;1.40;;;9.40;99.90;;;;;;5094805;28;20340;-80
2021/01/29 13:22:27;;;;;;;5.00;1.33;;;9.30;99.90;;;;;;5086186;28;20028;-80
2021/01/29 13:25:15;;;;;;;5.82;1.40;;;9.20;99.90;;;;;;5087384;28;20071;-78
2021/01/29 13:28:10;;;;;;;4.60;1.20;;;9.20;99.90;;;;;;5076350;28;21972;-77
2021/01/29 13:30:42;;;;;;;3.97;1.10;;;9.10;99.90;;;;;;5077778;28;20032;-77
2021/01/29 13:33:16;;;;;;;3.72;1.30;;;9.10;99.90;;;;;;5071799;28;21521;-77
2021/01/29 13:35:42;;;;;;;3.25;1.00;;;9.00;99.90;;;;;;5077924;28;20036;-76
2021/01/29 13:38:23;;;;;;;4.20;1.10;;;8.90;99.90;;;;;;5062958;28;20032;-77
2021/01/29 13:40:51;;;;;;;5.28;1.05;;;8.80;99.90;;;;;;5077938;28;20131;-74
2021/01/29 13:43:29;;;;;;;4.68;1.45;;;8.70;99.90;;;;;;5077719;28;20095;-79
2021/01/29 13:46:07;;;;;;;3.70;1.05;;;8.60;99.90;;;;;;5088541;28;20028;-76
2021/01/29 13:48:35;;;;;;;4.50;1.17;;;8.50;99.90;;;;;;5076449;28;20039;-79
2021/01/29 13:51:23;;;;;;;2.63;0.88;;;8.40;99.90;;;;;;5081244;28;20031;-78
2021/01/29 13:53:51;;;;;;;3.35;1.00;;;8.50;99.90;;;;;;5078669;28;20372;-68